Hanover, Nebraska
Current Conditions -  °F | °C
As of 8:53 PM on Monday 26 Jan 2015 (Local Time) from KHSI Reporting Station
Clear Clear  
Wind Chill: 38°   Ceiling: Unl
Heat Index: 38°   Visibility: 10mi
Dew Point: 27°   Wind: 0mph
Humidity: 65%   Direction: NA
Pressure: 30.04"   Gusts: NA
Location:  40.4809°N, 98.2217°W
Report Text: KHSI 270253Z AUTO 00000KT 10SM CLR 03/M03 A3004 RMK AO2 SLP186 T00331028 51008
Loading
Personal Weather Stations






























Interactive Weather Map New forecast layout! Learn more

10-Day Weather Forecast

Advertisements
Track Severe Weather on mobile